Time;durP1;ratioP1;P1;durP2;ratioP2;P2;SDS_P1;SDS_P2;PMS_P1;PMS_P2;Temp;Humidity;BMP_temperature;BMP_pressure;BME280_temperature;BME280_humidity;BME280_pressure;Samples;Min_cycle;Max_cycle;Signal;HPM_P1;HPM_P2
2022/12/22 06:56:12;;;;;;;4.20;2.35;;;;;;;;;;10513988;28;20479;-78
2022/12/22 07:01:13;;;;;;;26.65;13.02;;;;;;;;;;10522573;28;20059;-77
2022/12/22 07:06:17;;;;;;;6.10;2.95;;;;;;;;;;10522789;28;20487;-77
2022/12/22 07:11:18;;;;;;;2.00;1.55;;;;;;;;;;10520735;28;20035;-77
2022/12/22 07:16:19;;;;;;;;;;;;;;;;;;10517348;28;20024;-77
2022/12/22 07:21:20;;;;;;;4.15;3.35;;;;;;;;;;10517690;28;20007;-77
2022/12/22 07:26:21;;;;;;;;;;;;;;;;;;10507864;28;20115;-78
2022/12/22 07:31:23;;;;;;;1.88;1.35;;;;;;;;;;10504934;28;19904;-78
2022/12/22 07:36:24;;;;;;;1.52;1.30;;;;;;;;;;10504144;28;20096;-78
2022/12/22 07:46:44;;;;;;;2.22;1.90;;;;;;;;;;10505781;28;20036;-77
2022/12/22 07:51:46;;;;;;;7.78;6.82;;;;;;;;;;10515711;28;20036;-78
2022/12/22 07:56:47;;;;;;;3.75;2.30;;;;;;;;;;10503899;28;20029;-78
2022/12/22 08:01:48;;;;;;;2.13;1.20;;;;;;;;;;10494103;28;20029;-77
2022/12/22 08:06:49;;;;;;;3.80;2.15;;;;;;;;;;10468754;28;20124;-77
2022/12/22 08:11:50;;;;;;;4.15;3.10;;;;;;;;;;10468114;28;20023;-79
2022/12/22 08:16:51;;;;;;;7.90;6.55;;;;;;;;;;10478045;28;20021;-78
2022/12/22 08:21:52;;;;;;;4.93;3.92;;;;;;;;;;10467803;28;20079;-78
2022/12/22 08:26:55;;;;;;;5.00;3.53;;;;;;;;;;10464006;28;20090;-78
2022/12/22 08:31:56;;;;;;;4.93;3.75;;;;;;;;;;10466883;28;20092;-78
2022/12/22 08:36:58;;;;;;;6.00;4.05;;;;;;;;;;10463276;28;20025;-78
2022/12/22 08:42:00;;;;;;;8.23;6.47;;;;;;;;;;10466902;28;20029;-78
2022/12/22 08:47:01;;;;;;;9.63;7.18;;;;;;;;;;10463746;28;20079;-79
2022/12/22 08:52:02;;;;;;;10.15;8.20;;;;;;;;;;10460432;28;20052;-78
2022/12/22 08:57:03;;;;;;;10.63;8.73;;;;;;;;;;10462303;28;20502;-78
2022/12/22 09:02:04;;;;;;;9.95;7.97;;;;;;;;;;10463564;28;20035;-78
2022/12/22 09:07:05;;;;;;;11.18;8.32;;;;;;;;;;10464318;28;20025;-78
2022/12/22 09:12:07;;;;;;;9.15;7.75;;;;;;;;;;10463146;28;20032;-79
2022/12/22 09:17:08;;;;;;;10.05;8.20;;;;;;;;;;10465106;28;20025;-78
2022/12/22 09:22:10;;;;;;;10.23;7.40;;;;;;;;;;10472499;28;20120;-78
2022/12/22 09:27:11;;;;;;;8.60;7.20;;;;;;;;;;10467586;28;20108;-79
2022/12/22 09:32:13;;;;;;;8.18;6.63;;;;;;;;;;10463242;28;20021;-79
2022/12/22 09:37:14;;;;;;;6.78;5.75;;;;;;;;;;10495172;28;20013;-80
2022/12/22 09:42:18;;;;;;;7.53;5.85;;;;;;;;;;10503859;28;20021;-79
2022/12/22 09:47:19;;;;;;;7.72;6.20;;;;;;;;;;10504893;28;20017;-79
2022/12/22 09:52:26;;;;;;;14.88;12.80;;;;;;;;;;10503987;28;20060;-78
2022/12/22 09:57:31;;;;;;;9.82;8.00;;;;;;;;;;10504226;28;20081;-79
2022/12/22 10:02:43;;;;;;;8.82;6.43;;;;;;;;;;10506222;28;20020;-79
2022/12/22 10:07:44;;;;;;;9.13;7.22;;;;;;;;;;10506074;28;20017;-78
2022/12/22 10:12:48;;;;;;;7.60;6.10;;;;;;;;;;10505850;28;20064;-82
2022/12/22 10:18:09;;;;;;;5.53;4.80;;;;;;;;;;10505361;28;20032;-82
2022/12/22 10:23:24;;;;;;;7.80;6.75;;;;;;;;;;10506770;28;20021;-80
2022/12/22 10:28:54;;;;;;;7.32;6.53;;;;;;;;;;10507097;28;20104;-80
2022/12/22 10:33:57;;;;;;;10.70;8.23;;;;;;;;;;10495933;28;20064;-79
2022/12/22 10:39:05;;;;;;;9.20;6.72;;;;;;;;;;10503970;28;20103;-78
2022/12/22 10:44:15;;;;;;;8.98;6.57;;;;;;;;;;10493764;28;20497;-80
2022/12/22 10:49:24;;;;;;;10.90;7.17;;;;;;;;;;10468859;28;20021;-80
2022/12/22 10:54:26;;;;;;;10.30;5.22;;;;;;;;;;10469024;28;20184;-80
2022/12/22 10:59:27;;;;;;;7.15;5.40;;;;;;;;;;10474879;28;20017;-78
2022/12/22 11:04:28;;;;;;;8.38;5.50;;;;;;;;;;10467897;28;20124;-82
2022/12/22 11:09:29;;;;;;;13.10;8.30;;;;;;;;;;10469405;28;20479;-79
2022/12/22 11:14:49;;;;;;;8.40;7.22;;;;;;;;;;10472440;28;20021;-80
2022/12/22 11:19:58;;;;;;;12.15;9.77;;;;;;;;;;10477174;28;20025;-81
2022/12/22 11:25:17;;;;;;;6.95;5.07;;;;;;;;;;10481727;28;20073;-80
2022/12/22 11:30:20;;;;;;;6.00;5.10;;;;;;;;;;10483343;28;20029;-82
2022/12/22 11:35:27;;;;;;;8.15;5.72;;;;;;;;;;10464527;28;20053;-80
2022/12/22 11:40:28;;;;;;;7.78;5.40;;;;;;;;;;10491659;28;20029;-81
2022/12/22 11:45:29;;;;;;;;;;;;;;;;;;10502044;28;20021;-78
2022/12/22 11:50:43;;;;;;;6.82;4.75;;;;;;;;;;10493286;28;20294;-78
2022/12/22 11:55:58;;;;;;;7.70;5.97;;;;;;;;;;10479659;28;20395;-81
2022/12/22 12:01:17;;;;;;;11.40;7.63;;;;;;;;;;10470007;28;20055;-79
2022/12/22 12:06:25;;;;;;;9.60;6.22;;;;;;;;;;10467433;28;20500;-80
2022/12/22 12:11:26;;;;;;;13.18;8.02;;;;;;;;;;10466752;28;20458;-81
2022/12/22 12:16:27;;;;;;;;;;;;;;;;;;10468614;28;20057;-80
2022/12/22 12:21:42;;;;;;;11.30;7.95;;;;;;;;;;10467064;28;19926;-79
2022/12/22 12:26:43;;;;;;;9.23;5.78;;;;;;;;;;10466099;28;20111;-80
2022/12/22 12:31:44;;;;;;;;;;;;;;;;;;10465514;28;20049;-80
2022/12/22 12:36:51;;;;;;;9.63;6.25;;;;;;;;;;10465087;28;19930;-81
2022/12/22 12:41:55;;;;;;;7.55;5.70;;;;;;;;;;10466842;28;20104;-79
2022/12/22 12:47:05;;;;;;;9.88;7.18;;;;;;;;;;10467021;28;20021;-79
2022/12/22 12:52:08;;;;;;;10.83;6.67;;;;;;;;;;10465626;28;20443;-77
2022/12/22 12:57:28;;;;;;;9.40;6.00;;;;;;;;;;10466482;28;20263;-78
2022/12/22 13:02:38;;;;;;;12.63;7.93;;;;;;;;;;10471549;28;20055;-78
2022/12/22 13:07:58;;;;;;;10.20;7.10;;;;;;;;;;10463923;28;20380;-79
2022/12/22 13:12:59;;;;;;;9.65;5.88;;;;;;;;;;10463558;28;20052;-78
2022/12/22 13:18:00;;;;;;;;;;;;;;;;;;10498879;28;20044;-79
2022/12/22 13:23:03;;;;;;;9.38;7.07;;;;;;;;;;10482208;28;19999;-78
2022/12/22 13:28:04;;;;;;;13.52;8.27;;;;;;;;;;10466870;28;20133;-79
2022/12/22 13:33:10;;;;;;;9.55;5.85;;;;;;;;;;10467584;28;20029;-78
2022/12/22 13:38:29;;;;;;;8.65;5.25;;;;;;;;;;10466514;28;20025;-78
2022/12/22 13:43:31;;;;;;;7.18;4.80;;;;;;;;;;10463772;28;20044;-79
2022/12/22 13:48:37;;;;;;;9.60;7.05;;;;;;;;;;10465861;28;20476;-79
2022/12/22 13:53:40;;;;;;;8.15;5.82;;;;;;;;;;10464849;28;20029;-77
2022/12/22 13:58:46;;;;;;;10.43;7.93;;;;;;;;;;10464194;28;20142;-79
2022/12/22 14:03:51;;;;;;;9.32;4.90;;;;;;;;;;10462664;28;20032;-81
2022/12/22 14:08:53;;;;;;;8.80;6.40;;;;;;;;;;10465085;28;20021;-80
2022/12/22 14:13:54;;;;;;;8.13;5.43;;;;;;;;;;10473546;28;20048;-78
2022/12/22 14:18:55;;;;;;;;;;;;;;;;;;10471900;28;20615;-80
2022/12/22 14:23:56;;;;;;;;;;;;;;;;;;10465775;28;19905;-78
2022/12/22 14:28:57;;;;;;;10.02;5.97;;;;;;;;;;10464656;28;19908;-79
2022/12/22 14:34:04;;;;;;;6.93;4.80;;;;;;;;;;10469185;28;20047;-80
2022/12/22 14:39:08;;;;;;;7.20;5.78;;;;;;;;;;10470694;28;20021;-79
2022/12/22 14:44:21;;;;;;;10.02;7.03;;;;;;;;;;10468753;28;20044;-80
2022/12/22 14:49:22;;;;;;;9.23;7.90;;;;;;;;;;10461610;28;20119;-80
2022/12/22 14:54:23;;;;;;;;;;;;;;;;;;10462005;28;20029;-80
2022/12/22 14:59:26;;;;;;;8.45;4.72;;;;;;;;;;10461846;28;20325;-84
2022/12/22 15:04:27;;;;;;;6.00;4.15;;;;;;;;;;10464176;28;20104;-82
2022/12/22 15:09:28;;;;;;;5.47;3.67;;;;;;;;;;10462139;28;20033;-82
2022/12/22 15:14:30;;;;;;;4.68;2.92;;;;;;;;;;10466468;28;20021;-82
2022/12/22 15:19:35;;;;;;;7.95;5.10;;;;;;;;;;10473290;28;20039;-82
2022/12/22 15:24:36;;;;;;;6.65;4.35;;;;;;;;;;10497606;28;20033;-80
2022/12/22 15:29:37;;;;;;;6.32;3.67;;;;;;;;;;10483733;28;20033;-81
2022/12/22 15:34:38;;;;;;;7.78;4.10;;;;;;;;;;10471851;28;20025;-81
2022/12/22 15:39:39;;;;;;;9.00;4.32;;;;;;;;;;10470363;28;20450;-82
2022/12/22 15:44:40;;;;;;;6.45;4.38;;;;;;;;;;10470772;28;20074;-82
2022/12/22 15:49:41;;;;;;;5.80;4.25;;;;;;;;;;10471050;28;20456;-79
2022/12/22 15:54:43;;;;;;;7.95;5.10;;;;;;;;;;10474413;28;20114;-81
2022/12/22 15:59:44;;;;;;;7.28;5.15;;;;;;;;;;10470515;28;20355;-82
2022/12/22 16:04:45;;;;;;;5.47;4.13;;;;;;;;;;10471502;28;20081;-81
2022/12/22 16:09:47;;;;;;;7.60;3.75;;;;;;;;;;10469601;28;20137;-81
2022/12/22 16:14:50;;;;;;;6.22;4.30;;;;;;;;;;10470511;28;20036;-81
2022/12/22 16:19:51;;;;;;;6.00;4.07;;;;;;;;;;10468773;28;20025;-83
2022/12/22 16:24:52;;;;;;;5.55;3.53;;;;;;;;;;10470173;28;20128;-82
2022/12/22 16:29:53;;;;;;;7.00;4.45;;;;;;;;;;10468502;28;20028;-82
2022/12/22 16:34:58;;;;;;;5.57;4.13;;;;;;;;;;10471035;28;20487;-79
2022/12/22 16:40:00;;;;;;;11.80;8.88;;;;;;;;;;10480074;28;20025;-79
2022/12/22 16:45:03;;;;;;;4.93;3.55;;;;;;;;;;10472751;28;20081;-81
2022/12/22 16:50:06;;;;;;;7.20;4.05;;;;;;;;;;10477490;28;20021;-81
2022/12/22 16:55:15;;;;;;;6.72;4.80;;;;;;;;;;10470807;28;20127;-80
2022/12/22 17:00:20;;;;;;;9.05;7.43;;;;;;;;;;10473591;28;20013;-79
2022/12/22 17:05:32;;;;;;;5.90;4.22;;;;;;;;;;10470843;28;20093;-81
2022/12/22 17:10:34;;;;;;;7.35;6.18;;;;;;;;;;10473819;28;20151;-82
2022/12/22 17:15:35;;;;;;;9.52;7.32;;;;;;;;;;10474355;28;20052;-82
2022/12/22 17:20:36;;;;;;;4.75;3.45;;;;;;;;;;10479669;28;20032;-80
2022/12/22 17:25:37;;;;;;;6.85;4.90;;;;;;;;;;10471560;28;20460;-80
2022/12/22 17:30:39;;;;;;;13.15;10.13;;;;;;;;;;10470178;28;20052;-81
2022/12/22 17:35:40;;;;;;;7.15;5.78;;;;;;;;;;10469953;28;20064;-80
2022/12/22 17:40:42;;;;;;;7.93;6.25;;;;;;;;;;10470772;28;20074;-80
2022/12/22 17:45:44;;;;;;;12.05;9.20;;;;;;;;;;10476037;28;20039;-80
2022/12/22 17:50:49;;;;;;;7.85;5.32;;;;;;;;;;10479485;28;20025;-80
2022/12/22 17:55:50;;;;;;;9.77;7.82;;;;;;;;;;10480619;28;20048;-80
2022/12/22 18:00:51;;;;;;;7.10;6.20;;;;;;;;;;10469298;28;20452;-80
2022/12/22 18:05:53;;;;;;;;;;;;;;;;;;10468871;28;20059;-80
2022/12/22 18:10:54;;;;;;;7.35;6.30;;;;;;;;;;10469039;28;20282;-81
2022/12/22 18:15:55;;;;;;;;;;;;;;;;;;10467481;28;20032;-81
2022/12/22 18:20:56;;;;;;;5.63;4.07;;;;;;;;;;10467007;28;19905;-80
2022/12/22 18:25:58;;;;;;;5.57;4.20;;;;;;;;;;10465618;28;20399;-81
2022/12/22 18:30:59;;;;;;;6.90;4.35;;;;;;;;;;10467097;28;20025;-81
2022/12/22 18:36:01;;;;;;;6.00;5.15;;;;;;;;;;10465410;28;20043;-81
2022/12/22 18:41:02;;;;;;;5.22;3.40;;;;;;;;;;10465974;28;20021;-80
2022/12/22 18:46:03;;;;;;;;;;;;;;;;;;10474997;28;20116;-79
2022/12/22 18:51:14;;;;;;;6.10;4.82;;;;;;;;;;10481497;28;20015;-80
2022/12/22 18:56:15;;;;;;;5.80;4.38;;;;;;;;;;10484405;28;20051;-81
2022/12/22 19:01:18;;;;;;;5.30;3.70;;;;;;;;;;10472624;28;20045;-80
2022/12/22 19:06:20;;;;;;;5.53;3.35;;;;;;;;;;10474809;28;20055;-81
2022/12/22 19:11:23;;;;;;;3.78;2.75;;;;;;;;;;10475827;28;20025;-81
2022/12/22 19:16:25;;;;;;;5.88;4.13;;;;;;;;;;10472472;28;20029;-80
2022/12/22 19:21:26;;;;;;;4.75;3.00;;;;;;;;;;10473737;28;20021;-80
2022/12/22 19:26:27;;;;;;;5.95;4.10;;;;;;;;;;10471315;28;20028;-83
2022/12/22 19:31:30;;;;;;;4.70;2.83;;;;;;;;;;10471430;28;20025;-79
2022/12/22 19:36:32;;;;;;;6.53;3.33;;;;;;;;;;10468054;28;20029;-79
2022/12/22 19:41:44;;;;;;;4.25;2.78;;;;;;;;;;10468315;28;20018;-80
2022/12/22 19:46:46;;;;;;;7.95;3.65;;;;;;;;;;10467430;28;20071;-80
2022/12/22 19:51:47;;;;;;;8.48;3.40;;;;;;;;;;10469320;28;20036;-81
2022/12/22 19:56:51;;;;;;;5.97;3.60;;;;;;;;;;10467907;28;20454;-80
2022/12/22 20:01:52;;;;;;;5.97;3.00;;;;;;;;;;10474365;28;20032;-80
2022/12/22 20:06:53;;;;;;;;;;;;;;;;;;10475902;28;20029;-79
2022/12/22 20:11:54;;;;;;;5.47;2.80;;;;;;;;;;10475701;28;20311;-80
2022/12/22 20:16:55;;;;;;;;;;;;;;;;;;10472987;28;20096;-79
